createdAt,value
2022-10-08T00:08:16.195Z,15.70
2022-10-08T00:23:16.231Z,14.90
2022-10-08T00:38:16.382Z,14.10
2022-10-08T00:53:16.491Z,13.20
2022-10-08T01:08:16.615Z,13.30
2022-10-08T01:23:16.721Z,12.20
2022-10-08T01:38:16.978Z,10.60
2022-10-08T01:53:17.044Z,11.70
2022-10-08T02:08:17.101Z,10.60
2022-10-08T02:23:17.219Z,11.30
2022-10-08T02:38:17.364Z,11.20
2022-10-08T02:53:17.474Z,10.80
2022-10-08T03:08:18.102Z,10.80
2022-10-08T03:23:18.182Z,11.40
2022-10-08T03:38:18.261Z,10.80
2022-10-08T03:53:18.416Z,12.30
2022-10-08T04:08:18.516Z,11.90
2022-10-08T04:23:18.635Z,11.60
2022-10-08T04:38:18.755Z,11.50
2022-10-08T04:53:18.866Z,10.50
2022-10-08T05:08:18.989Z,12.40
2022-10-08T05:23:20.393Z,11.00
2022-10-08T05:38:20.983Z,12.70
2022-10-08T05:53:21.072Z,12.60
2022-10-08T06:08:21.432Z,12.20
2022-10-08T06:23:21.933Z,12.10
2022-10-08T06:38:22.308Z,11.10
2022-10-08T06:53:22.427Z,8.40
2022-10-08T07:08:22.371Z,8.20
2022-10-08T07:23:22.925Z,6.10
2022-10-08T08:14:51.864Z,4.70
2022-10-08T08:29:51.946Z,6.70
2022-10-08T08:44:52.050Z,3.70
2022-10-08T08:59:52.187Z,4.10
2022-10-08T09:14:52.273Z,3.90
2022-10-08T09:29:52.457Z,3.60
2022-10-08T09:44:52.526Z,3.70
2022-10-08T09:59:52.674Z,4.10
2022-10-08T10:14:53.230Z,4.20
2022-10-08T10:29:53.833Z,3.70
2022-10-08T10:44:54.438Z,3.40
2022-10-08T10:59:55.029Z,19.50
2022-10-08T11:14:55.173Z,2.80
2022-10-08T11:29:55.209Z,3.10
2022-10-08T11:44:55.321Z,2.60
2022-10-08T11:59:55.442Z,4.00
2022-10-08T12:14:55.575Z,2.90
2022-10-08T12:29:55.674Z,2.30
2022-10-08T12:44:56.306Z,2.60
2022-10-08T12:59:56.861Z,2.60
2022-10-08T13:14:57.006Z,3.40
2022-10-08T13:29:57.105Z,3.40
2022-10-08T13:44:57.207Z,2.50
2022-10-08T13:59:57.283Z,3.40
2022-10-08T14:14:57.545Z,3.90
2022-10-08T14:29:57.516Z,2.70
2022-10-08T14:44:57.614Z,1.80
2022-10-08T14:59:57.662Z,1.70
2022-10-08T15:14:57.769Z,1.10
2022-10-08T15:29:57.892Z,1.00
2022-10-08T15:44:57.991Z,1.20
2022-10-08T15:59:58.100Z,0.90
2022-10-08T16:14:58.215Z,1.50
2022-10-08T16:29:58.275Z,1.10
2022-10-08T16:44:58.881Z,1.10
2022-10-08T16:59:59.008Z,3.30
2022-10-08T17:14:59.107Z,2.10
2022-10-08T17:29:59.209Z,4.00
2022-10-08T17:44:59.353Z,3.40
2022-10-08T17:59:59.418Z,3.00
2022-10-08T18:15:00.020Z,8.90
2022-10-08T18:30:00.603Z,4.10
2022-10-08T18:45:00.748Z,3.50
2022-10-08T19:00:01.379Z,3.00
2022-10-08T19:15:01.456Z,3.40
2022-10-08T19:30:01.561Z,2.10
2022-10-08T19:45:01.676Z,2.00
2022-10-08T20:00:01.797Z,2.50
2022-10-08T20:15:02.461Z,2.20
2022-10-08T20:30:02.554Z,2.40
2022-10-08T20:45:02.700Z,1.90
2022-10-08T21:00:02.770Z,2.70
2022-10-08T21:15:02.875Z,2.60
2022-10-08T21:30:02.988Z,2.70
2022-10-08T21:45:03.109Z,2.70
2022-10-08T22:00:03.248Z,2.70
2022-10-08T22:15:03.852Z,2.30
2022-10-08T22:30:03.964Z,2.10
2022-10-08T22:45:04.193Z,2.10
2022-10-08T23:00:04.208Z,2.30
2022-10-08T23:15:04.322Z,2.60
2022-10-08T23:30:04.512Z,2.80
2022-10-08T23:45:04.512Z,2.40
